createdAt,value
2023-02-07T00:01:26.236Z,92.57
2023-02-07T00:03:31.362Z,92.99
2023-02-07T00:05:40.731Z,93.43
2023-02-07T00:07:45.556Z,93.12
2023-02-07T00:09:51.068Z,92.77
2023-02-07T00:11:56.087Z,93.47
2023-02-07T00:14:02.715Z,92.78
2023-02-07T00:16:12.295Z,92.90
2023-02-07T00:18:17.320Z,93.41
2023-02-07T00:20:22.444Z,92.99
2023-02-07T00:22:31.367Z,92.25
2023-02-07T00:24:36.785Z,92.06
2023-02-07T00:26:41.834Z,92.04
2023-02-07T00:28:48.249Z,91.59
2023-02-07T00:30:53.661Z,92.27
2023-02-07T00:32:58.727Z,92.78
2023-02-07T00:35:04.225Z,92.40
2023-02-07T00:37:10.011Z,92.54
2023-02-07T00:39:20.468Z,92.77
2023-02-07T00:41:25.457Z,92.55
2023-02-07T00:43:33.083Z,93.28
2023-02-07T00:45:38.882Z,92.59
2023-02-07T00:47:44.166Z,92.42
2023-02-07T00:49:49.215Z,91.88
2023-02-07T00:51:55.370Z,91.92
2023-02-07T00:54:00.986Z,92.77
2023-02-07T00:56:09.420Z,92.27
2023-02-07T00:58:16.310Z,92.39
2023-02-07T01:00:21.760Z,93.02
2023-02-07T01:02:26.701Z,93.68
2023-02-07T01:04:31.719Z,93.44
2023-02-07T01:06:37.370Z,93.27
2023-02-07T01:08:42.667Z,92.91
2023-02-07T01:10:48.694Z,92.98
2023-02-07T01:12:57.643Z,92.70
2023-02-07T01:15:02.694Z,92.36
2023-02-07T01:17:07.611Z,92.82
2023-02-07T01:19:15.061Z,93.22
2023-02-07T01:21:21.634Z,92.85
2023-02-07T01:23:27.855Z,92.81
2023-02-07T01:25:32.990Z,92.90
2023-02-07T01:27:38.834Z,93.36
2023-02-07T01:29:48.600Z,93.34
2023-02-07T01:31:55.005Z,93.84
2023-02-07T01:34:04.169Z,93.23
2023-02-07T01:36:11.625Z,93.49
2023-02-07T01:38:16.687Z,93.63
2023-02-07T01:40:21.872Z,93.70
2023-02-07T01:42:30.130Z,93.10
2023-02-07T01:45:06.889Z,92.78
2023-02-07T01:47:18.476Z,93.51
2023-02-07T01:49:27.620Z,94.20
2023-02-07T01:51:36.960Z,94.34
2023-02-07T01:53:43.864Z,94.52
2023-02-07T01:55:51.491Z,94.24
2023-02-07T01:57:59.500Z,94.50
2023-02-07T02:00:11.954Z,93.95
2023-02-07T02:02:20.500Z,94.19
2023-02-07T02:04:26.017Z,94.29
2023-02-07T02:06:33.905Z,94.93
2023-02-07T02:08:40.364Z,94.88
2023-02-07T02:11:08.335Z,94.11
2023-02-07T02:13:24.262Z,94.17
2023-02-07T02:15:43.488Z,94.58
2023-02-07T02:18:00.949Z,94.09
2023-02-07T02:20:47.786Z,93.73
2023-02-07T02:23:30.407Z,95.17
2023-02-07T02:26:01.767Z,94.13
2023-02-07T02:28:29.869Z,94.14
2023-02-07T02:30:59.640Z,93.91
2023-02-07T02:33:37.204Z,93.89
2023-02-07T02:35:53.704Z,94.87
2023-02-07T02:38:06.989Z,94.34
2023-02-07T02:40:17.036Z,94.02
2023-02-07T02:42:30.850Z,93.68
2023-02-07T02:44:41.137Z,94.38
2023-02-07T02:46:48.736Z,94.23
2023-02-07T02:48:55.740Z,94.23
2023-02-07T02:51:04.449Z,94.33
2023-02-07T02:53:09.486Z,94.37
2023-02-07T02:55:15.178Z,94.25
2023-02-07T02:57:38.205Z,94.09
2023-02-07T03:00:10.106Z,93.83
2023-02-07T03:02:30.086Z,93.83
2023-02-07T03:05:00.565Z,94.23
2023-02-07T03:07:26.430Z,94.28
2023-02-07T03:09:41.146Z,94.26
2023-02-07T03:11:58.018Z,94.25
2023-02-07T03:14:10.321Z,94.86
2023-02-07T03:16:21.502Z,95.18
2023-02-07T03:18:32.611Z,94.96
2023-02-07T03:20:41.848Z,94.86
2023-02-07T03:22:50.507Z,95.00
2023-02-07T03:25:01.920Z,94.78
2023-02-07T03:27:15.432Z,94.90
2023-02-07T03:29:22.790Z,94.80
2023-02-07T03:31:30.069Z,95.13
2023-02-07T03:33:36.461Z,94.98
2023-02-07T03:35:45.487Z,95.07
2023-02-07T03:37:56.104Z,95.20
2023-02-07T03:40:01.006Z,95.17
2023-02-07T03:42:10.220Z,95.00
2023-02-07T03:44:18.175Z,95.43
2023-02-07T03:46:23.217Z,95.21
2023-02-07T03:48:28.581Z,95.73
2023-02-07T03:50:37.358Z,95.22
2023-02-07T03:52:42.391Z,95.26
2023-02-07T03:54:49.882Z,95.59
2023-02-07T03:56:54.747Z,95.18
2023-02-07T03:59:01.044Z,95.49
2023-02-07T04:01:06.294Z,95.47
2023-02-07T04:03:11.190Z,95.39
2023-02-07T04:05:16.214Z,95.47
2023-02-07T04:07:21.244Z,95.75
2023-02-07T04:09:26.384Z,95.71
2023-02-07T04:11:35.232Z,96.31
2023-02-07T04:13:40.446Z,96.07
2023-02-07T04:15:45.392Z,96.19
2023-02-07T04:17:51.104Z,96.08
2023-02-07T04:19:56.445Z,96.32
2023-02-07T04:22:04.186Z,96.04
2023-02-07T04:24:09.959Z,95.91
2023-02-07T04:26:16.148Z,95.77
2023-02-07T04:28:23.778Z,95.93
2023-02-07T04:30:28.694Z,95.87
2023-02-07T04:32:33.852Z,96.04
2023-02-07T04:34:41.829Z,95.71
2023-02-07T04:36:46.785Z,95.54
2023-02-07T04:38:51.657Z,95.77
2023-02-07T04:41:00.589Z,95.62
2023-02-07T04:43:06.254Z,95.63
2023-02-07T04:45:16.282Z,95.86
2023-02-07T04:47:21.364Z,95.92
2023-02-07T04:49:26.345Z,95.97
2023-02-07T04:51:32.820Z,95.78
2023-02-07T04:53:38.213Z,95.64
2023-02-07T04:55:43.042Z,95.65
2023-02-07T04:57:49.828Z,95.78
2023-02-07T04:59:54.756Z,96.07
2023-02-07T05:02:02.333Z,95.92
2023-02-07T05:04:07.732Z,96.13
2023-02-07T05:06:14.667Z,96.03
2023-02-07T05:08:19.752Z,95.96
2023-02-07T05:10:24.835Z,96.03
2023-02-07T05:12:29.741Z,96.27
2023-02-07T05:14:41.998Z,95.84
2023-02-07T05:16:47.054Z,95.84
2023-02-07T05:18:54.623Z,95.98
2023-02-07T05:21:02.665Z,95.83
2023-02-07T05:23:08.413Z,95.75
2023-02-07T05:25:16.179Z,95.68
2023-02-07T05:27:21.045Z,95.62
2023-02-07T05:29:25.954Z,95.73
2023-02-07T05:31:45.416Z,95.95
2023-02-07T05:33:52.318Z,95.86
2023-02-07T05:36:00.098Z,95.93
2023-02-07T05:38:06.537Z,95.71
2023-02-07T05:40:14.134Z,95.81
2023-02-07T05:42:19.324Z,95.78
2023-02-07T05:44:24.362Z,95.92
2023-02-07T05:46:29.243Z,95.86
2023-02-07T05:48:35.227Z,95.76
2023-02-07T05:50:42.640Z,95.80
2023-02-07T05:52:51.657Z,96.09
2023-02-07T05:54:56.776Z,96.18
2023-02-07T05:57:02.316Z,96.21
2023-02-07T05:59:07.046Z,96.32
2023-02-07T06:01:12.638Z,96.17
2023-02-07T06:03:17.648Z,96.18
2023-02-07T06:05:23.387Z,96.25
2023-02-07T06:07:28.564Z,96.15
2023-02-07T06:09:39.087Z,96.42
2023-02-07T06:11:45.520Z,96.44
2023-02-07T06:13:52.187Z,96.73
2023-02-07T06:15:59.688Z,96.62
2023-02-07T06:18:07.573Z,96.51
2023-02-07T06:20:14.007Z,96.54
2023-02-07T06:22:19.239Z,96.26
2023-02-07T06:24:24.489Z,96.44
2023-02-07T06:26:32.037Z,96.28
2023-02-07T06:28:36.942Z,96.33
2023-02-07T06:30:42.065Z,96.41
2023-02-07T06:32:47.926Z,96.52
2023-02-07T06:34:52.815Z,96.44
2023-02-07T06:36:57.678Z,96.29
2023-02-07T06:39:03.757Z,96.12
2023-02-07T06:41:12.587Z,96.24
2023-02-07T06:43:20.038Z,96.59
2023-02-07T06:45:25.066Z,96.77
2023-02-07T06:47:30.059Z,96.48
2023-02-07T06:49:35.212Z,96.50
2023-02-07T06:51:40.303Z,96.45
2023-02-07T06:53:45.514Z,96.59
2023-02-07T06:55:52.140Z,96.74
2023-02-07T06:57:58.294Z,96.64
2023-02-07T07:00:06.408Z,96.63
2023-02-07T07:02:14.390Z,96.55
2023-02-07T07:04:19.288Z,97.05
2023-02-07T07:06:24.244Z,96.92
2023-02-07T07:08:30.028Z,97.00
2023-02-07T07:10:35.131Z,96.85
2023-02-07T07:12:40.421Z,96.82
2023-02-07T07:14:48.391Z,96.72
2023-02-07T07:16:56.881Z,96.43
2023-02-07T07:19:02.479Z,96.53
2023-02-07T07:21:07.956Z,96.59
2023-02-07T07:23:12.998Z,96.78
2023-02-07T07:25:20.050Z,96.86
2023-02-07T07:27:24.851Z,96.54
2023-02-07T07:29:29.683Z,96.74
2023-02-07T07:31:36.835Z,96.57
2023-02-07T07:33:44.492Z,96.66
2023-02-07T07:35:49.903Z,96.39
2023-02-07T07:37:54.775Z,96.30
2023-02-07T07:40:00.430Z,96.34
2023-02-07T07:42:05.514Z,96.60
2023-02-07T07:44:10.445Z,96.62
2023-02-07T07:46:16.667Z,96.62
2023-02-07T07:48:21.897Z,96.66
2023-02-07T07:50:29.513Z,96.69
2023-02-07T07:52:35.270Z,96.45
2023-02-07T07:54:40.486Z,96.76
2023-02-07T07:56:45.557Z,96.80
2023-02-07T07:58:51.984Z,96.70
2023-02-07T08:00:56.865Z,96.77
2023-02-07T08:03:02.324Z,96.42
2023-02-07T08:05:07.765Z,96.29
2023-02-07T08:07:18.542Z,95.81
2023-02-07T08:09:24.375Z,96.09
2023-02-07T08:11:29.482Z,95.83
2023-02-07T08:13:36.544Z,95.75
2023-02-07T08:15:41.988Z,95.75
2023-02-07T08:17:47.281Z,95.65
2023-02-07T08:19:52.151Z,95.76
2023-02-07T08:21:57.333Z,95.85
2023-02-07T08:24:05.036Z,95.63
2023-02-07T08:26:10.249Z,95.44
2023-02-07T08:28:15.753Z,95.23
2023-02-07T08:30:22.055Z,95.39
2023-02-07T08:32:28.998Z,95.51
2023-02-07T08:34:37.785Z,95.74
2023-02-07T08:38:53.749Z,95.77
2023-02-07T08:41:01.567Z,95.76
2023-02-07T08:43:12.477Z,95.48
2023-02-07T08:45:21.268Z,95.18
2023-02-07T08:47:26.254Z,95.18
2023-02-07T08:49:31.617Z,95.14
2023-02-07T08:51:36.521Z,95.24
2023-02-07T08:53:41.754Z,94.79
2023-02-07T08:55:48.188Z,95.03
2023-02-07T08:57:55.855Z,94.65
2023-02-07T09:00:00.759Z,94.85
2023-02-07T09:02:06.190Z,94.90
2023-02-07T09:04:11.830Z,95.14
2023-02-07T09:06:17.079Z,94.68
2023-02-07T09:08:22.002Z,94.42
2023-02-07T09:10:27.696Z,94.03
2023-02-07T09:12:32.666Z,94.21
2023-02-07T09:14:41.003Z,94.19
2023-02-07T09:16:46.767Z,94.17
2023-02-07T09:18:52.004Z,93.65
2023-02-07T09:20:57.617Z,93.56
2023-02-07T09:23:15.312Z,94.04
2023-02-07T09:25:21.614Z,94.17
2023-02-07T09:27:29.832Z,93.93
2023-02-07T09:29:35.095Z,94.06
2023-02-07T09:31:47.673Z,94.10
2023-02-07T09:33:52.813Z,93.91
2023-02-07T09:35:57.661Z,93.88
2023-02-07T09:38:02.488Z,93.43
2023-02-07T09:40:09.353Z,92.55
2023-02-07T09:42:29.271Z,93.16
2023-02-07T09:44:50.975Z,92.81
2023-02-07T09:47:05.549Z,92.36
2023-02-07T09:49:20.156Z,92.20
2023-02-07T09:51:28.361Z,91.98
2023-02-07T09:53:43.525Z,91.92
2023-02-07T09:55:55.528Z,91.58
2023-02-07T09:58:04.892Z,90.59
2023-02-07T10:00:22.393Z,90.73
2023-02-07T10:02:41.990Z,90.37
2023-02-07T10:04:51.433Z,90.65
2023-02-07T10:06:58.882Z,90.47
2023-02-07T10:09:04.834Z,90.80
2023-02-07T10:11:20.117Z,90.44
2023-02-07T10:13:42.162Z,90.82
2023-02-07T10:16:01.134Z,90.47
2023-02-07T10:18:30.160Z,89.45
2023-02-07T10:20:41.473Z,90.30
2023-02-07T10:22:53.981Z,90.50
2023-02-07T10:25:30.756Z,89.94
2023-02-07T10:27:46.862Z,90.31
2023-02-07T10:30:00.169Z,90.84
2023-02-07T10:32:15.644Z,90.49
2023-02-07T10:34:26.624Z,90.10
2023-02-07T10:36:37.342Z,89.72
2023-02-07T10:38:56.717Z,89.48
2023-02-07T10:41:09.784Z,90.00
2023-02-07T10:43:23.636Z,89.81
2023-02-07T10:45:28.682Z,90.15
2023-02-07T10:47:38.102Z,89.87
2023-02-07T10:49:49.593Z,89.15
2023-02-07T10:51:56.645Z,89.48
2023-02-07T10:54:11.914Z,89.29
2023-02-07T10:56:26.080Z,88.73
2023-02-07T10:58:42.102Z,88.74
2023-02-07T11:00:51.885Z,88.61
2023-02-07T11:02:57.872Z,88.00
2023-02-07T11:05:08.737Z,88.49
2023-02-07T11:07:21.580Z,88.05
2023-02-07T11:09:27.670Z,88.28
2023-02-07T11:11:41.773Z,87.87
2023-02-07T11:13:55.666Z,88.18
2023-02-07T11:16:06.225Z,88.17
2023-02-07T11:18:11.482Z,87.46
2023-02-07T11:20:26.658Z,87.78
2023-02-07T11:22:33.804Z,87.40
2023-02-07T11:24:42.146Z,87.27
2023-02-07T11:27:00.420Z,87.14
2023-02-07T11:29:16.570Z,86.10
2023-02-07T11:31:26.863Z,86.22
2023-02-07T11:33:37.907Z,86.04
2023-02-07T11:36:07.634Z,85.34
2023-02-07T11:38:17.768Z,85.32
2023-02-07T11:40:29.875Z,84.72
2023-02-07T11:42:36.254Z,84.32
2023-02-07T11:44:45.569Z,83.38
2023-02-07T11:46:52.053Z,83.56
2023-02-07T11:49:02.592Z,83.56
2023-02-07T11:51:12.952Z,83.03
2023-02-07T11:53:30.293Z,82.11
2023-02-07T11:55:42.563Z,81.65
2023-02-07T11:57:49.450Z,81.37
2023-02-07T12:00:10.929Z,80.63
2023-02-07T12:02:24.626Z,80.21
2023-02-07T12:04:38.038Z,79.86
2023-02-07T12:06:53.750Z,79.20
2023-02-07T12:09:06.520Z,79.16
2023-02-07T12:11:18.830Z,80.59
2023-02-07T12:13:27.256Z,78.66
2023-02-07T12:15:40.634Z,78.88
2023-02-07T12:17:59.019Z,79.19
2023-02-07T12:20:10.636Z,80.46
2023-02-07T12:22:22.388Z,79.47
2023-02-07T12:24:32.992Z,77.84
2023-02-07T12:26:46.692Z,78.95
2023-02-07T12:29:12.841Z,78.60
2023-02-07T12:31:27.509Z,78.89
2023-02-07T12:33:39.245Z,78.38
2023-02-07T12:35:57.475Z,78.63
2023-02-07T12:38:18.712Z,78.70
2023-02-07T12:40:33.811Z,77.61
2023-02-07T12:42:43.547Z,78.21
2023-02-07T12:44:55.612Z,77.54
2023-02-07T12:47:09.846Z,76.95
2023-02-07T12:49:31.257Z,76.74
2023-02-07T12:54:51.020Z,75.81
2023-02-07T12:57:03.798Z,75.13
2023-02-07T12:59:18.485Z,74.00
2023-02-07T13:01:31.291Z,75.39
2023-02-07T13:03:57.020Z,74.75
2023-02-07T13:06:14.353Z,74.62
2023-02-07T13:08:33.782Z,74.70
2023-02-07T13:11:05.139Z,74.35
2023-02-07T13:13:19.298Z,73.03
2023-02-07T13:15:37.161Z,74.19
2023-02-07T13:17:55.669Z,74.60
2023-02-07T13:20:08.387Z,73.58
2023-02-07T13:22:24.508Z,72.01
2023-02-07T13:24:38.421Z,71.96
2023-02-07T13:26:52.246Z,72.71
2023-02-07T13:29:00.091Z,71.31
2023-02-07T13:31:07.813Z,71.90
2023-02-07T13:33:28.935Z,72.38
2023-02-07T13:35:38.552Z,70.68
2023-02-07T13:38:02.396Z,70.88
2023-02-07T13:40:21.167Z,71.42
2023-02-07T13:42:41.213Z,70.70
2023-02-07T13:44:55.522Z,70.50
2023-02-07T13:47:31.713Z,69.88
2023-02-07T13:49:50.686Z,69.52
2023-02-07T13:52:06.673Z,69.46
2023-02-07T13:54:28.645Z,67.27
2023-02-07T13:56:48.086Z,68.44
2023-02-07T13:59:26.223Z,67.69
2023-02-07T14:01:35.107Z,67.44
2023-02-07T14:03:40.821Z,66.35
2023-02-07T14:05:46.742Z,66.67
2023-02-07T14:08:00.036Z,66.80
2023-02-07T14:10:08.753Z,67.07
2023-02-07T14:12:23.098Z,67.22
2023-02-07T14:14:33.405Z,66.69
2023-02-07T14:16:53.888Z,66.65
2023-02-07T14:18:58.887Z,66.18
2023-02-07T14:21:05.149Z,66.54
2023-02-07T14:23:18.804Z,67.18
2023-02-07T14:25:29.036Z,67.69
2023-02-07T14:27:42.215Z,67.73
2023-02-07T14:30:04.813Z,66.21
2023-02-07T14:32:43.103Z,65.41
2023-02-07T14:35:03.866Z,65.87
2023-02-07T14:37:25.123Z,66.70
2023-02-07T14:39:34.423Z,66.14
2023-02-07T14:41:46.965Z,66.95
2023-02-07T14:44:07.917Z,67.09
2023-02-07T14:46:19.471Z,67.87
2023-02-07T14:48:42.746Z,68.62
2023-02-07T14:50:59.198Z,69.19
2023-02-07T14:53:07.208Z,69.46
2023-02-07T14:55:20.859Z,68.96
2023-02-07T14:57:36.493Z,70.17
2023-02-07T14:59:45.570Z,70.51
2023-02-07T15:01:53.822Z,70.06
2023-02-07T15:04:17.182Z,69.56
2023-02-07T15:06:32.151Z,68.65
2023-02-07T15:08:38.658Z,68.94
2023-02-07T15:10:50.768Z,68.64
2023-02-07T15:12:57.097Z,68.28
2023-02-07T15:15:02.453Z,67.65
2023-02-07T15:17:09.049Z,66.67
2023-02-07T15:19:24.677Z,66.34
2023-02-07T15:21:39.973Z,65.82
2023-02-07T15:24:01.259Z,66.78
2023-02-07T15:26:09.834Z,67.11
2023-02-07T15:28:27.378Z,67.42
2023-02-07T15:30:33.582Z,67.18
2023-02-07T15:32:46.690Z,67.53
2023-02-07T15:34:56.175Z,68.40
2023-02-07T15:37:03.618Z,68.60
2023-02-07T15:39:11.683Z,68.25
2023-02-07T15:41:20.097Z,69.18
2023-02-07T15:43:35.077Z,70.12
2023-02-07T15:45:42.189Z,70.41
2023-02-07T15:47:47.710Z,70.64
2023-02-07T15:50:02.563Z,70.82
2023-02-07T15:52:16.539Z,70.94
2023-02-07T15:54:21.859Z,71.35
2023-02-07T15:56:28.447Z,71.24
2023-02-07T15:58:38.101Z,72.11
2023-02-07T16:00:45.811Z,72.22
2023-02-07T16:02:59.739Z,72.57
2023-02-07T16:05:15.971Z,72.73
2023-02-07T16:07:24.765Z,73.00
2023-02-07T16:09:45.668Z,73.58
2023-02-07T16:11:55.805Z,73.82
2023-02-07T16:14:13.651Z,73.95
2023-02-07T16:16:25.153Z,74.19
2023-02-07T16:18:42.910Z,73.94
2023-02-07T16:20:53.417Z,74.38
2023-02-07T16:23:01.024Z,74.39
2023-02-07T16:25:06.979Z,74.68
2023-02-07T16:27:20.527Z,74.49
2023-02-07T16:29:27.889Z,74.21
2023-02-07T16:31:34.914Z,73.81
2023-02-07T16:33:40.087Z,73.41
2023-02-07T16:35:54.083Z,73.46
2023-02-07T16:37:59.117Z,73.88
2023-02-07T16:40:04.208Z,73.74
2023-02-07T16:42:16.704Z,74.28
2023-02-07T16:44:26.587Z,74.44
2023-02-07T16:46:32.319Z,74.62
2023-02-07T16:48:37.291Z,74.84
2023-02-07T16:50:43.162Z,75.61
2023-02-07T16:52:59.899Z,74.86
2023-02-07T16:55:06.540Z,75.27
2023-02-07T16:57:15.958Z,75.77
2023-02-07T16:59:25.783Z,75.84
2023-02-07T17:01:31.253Z,75.99
2023-02-07T17:03:38.385Z,76.59
2023-02-07T17:05:44.194Z,76.47
2023-02-07T17:07:52.377Z,76.28
2023-02-07T17:09:57.609Z,76.83
2023-02-07T17:12:02.820Z,76.39
2023-02-07T17:14:07.731Z,76.67
2023-02-07T17:16:15.555Z,77.18
2023-02-07T17:18:20.788Z,77.46
2023-02-07T17:20:30.673Z,77.31
2023-02-07T17:22:35.643Z,77.72
2023-02-07T17:24:46.577Z,78.32
2023-02-07T17:26:55.460Z,78.00
2023-02-07T17:29:00.875Z,77.81
2023-02-07T17:31:06.814Z,78.92
2023-02-07T17:33:16.592Z,78.91
2023-02-07T17:35:22.208Z,78.85
2023-02-07T17:37:26.905Z,78.97
2023-02-07T17:39:31.629Z,80.48
2023-02-07T17:41:41.361Z,79.06
2023-02-07T17:43:48.341Z,80.67
2023-02-07T17:45:53.130Z,80.57
2023-02-07T17:47:59.687Z,80.94
2023-02-07T17:50:05.020Z,79.91
2023-02-07T17:52:14.462Z,80.44
2023-02-07T17:54:19.232Z,81.92
2023-02-07T17:56:27.542Z,80.63
2023-02-07T17:58:38.072Z,80.86
2023-02-07T18:00:43.633Z,81.76
2023-02-07T18:02:51.602Z,82.38
2023-02-07T18:04:58.444Z,82.43
2023-02-07T18:07:03.308Z,81.08
2023-02-07T18:09:08.305Z,81.10
2023-02-07T18:11:17.511Z,82.33
2023-02-07T18:13:23.165Z,83.05
2023-02-07T18:15:31.387Z,82.82
2023-02-07T18:17:38.383Z,82.33
2023-02-07T18:19:43.664Z,82.47
2023-02-07T18:21:49.395Z,84.29
2023-02-07T18:23:55.406Z,82.33
2023-02-07T18:26:00.911Z,82.26
2023-02-07T18:28:06.269Z,82.08
2023-02-07T18:30:15.013Z,83.96
2023-02-07T18:32:22.603Z,82.97
2023-02-07T18:34:27.611Z,83.79
2023-02-07T18:36:40.298Z,83.59
2023-02-07T18:38:45.883Z,83.94
2023-02-07T18:40:53.664Z,83.75
2023-02-07T18:42:59.329Z,84.73
2023-02-07T18:45:04.158Z,85.17
2023-02-07T18:47:12.050Z,83.73
2023-02-07T18:49:19.432Z,83.66
2023-02-07T18:51:25.261Z,84.65
2023-02-07T18:53:32.444Z,84.75
2023-02-07T18:55:37.368Z,84.78
2023-02-07T18:57:42.399Z,84.59
2023-02-07T18:59:48.498Z,84.64
2023-02-07T19:01:54.505Z,84.58
2023-02-07T19:04:01.887Z,85.29
2023-02-07T19:06:10.690Z,85.04
2023-02-07T19:08:15.576Z,84.77
2023-02-07T19:10:20.549Z,85.06
2023-02-07T19:12:25.298Z,84.74
2023-02-07T19:14:32.123Z,85.49
2023-02-07T19:16:36.888Z,86.53
2023-02-07T19:18:42.436Z,85.91
2023-02-07T19:20:48.180Z,84.85
2023-02-07T19:22:55.706Z,85.44
2023-02-07T19:25:00.533Z,85.07
2023-02-07T19:27:07.243Z,84.63
2023-02-07T19:29:13.065Z,85.28
2023-02-07T19:31:20.430Z,85.15
2023-02-07T19:33:25.866Z,85.02
2023-02-07T19:35:30.807Z,85.10
2023-02-07T19:37:38.070Z,85.65
2023-02-07T19:39:46.996Z,85.50
2023-02-07T19:41:52.128Z,85.08
2023-02-07T19:43:57.404Z,84.67
2023-02-07T19:46:02.505Z,85.01
2023-02-07T19:48:08.167Z,84.86
2023-02-07T19:50:17.097Z,84.64
2023-02-07T19:52:23.331Z,84.49
2023-02-07T19:54:28.302Z,84.37
2023-02-07T19:56:37.719Z,84.85
2023-02-07T19:58:44.510Z,84.75
2023-02-07T20:00:49.532Z,84.78
2023-02-07T20:02:54.480Z,85.36
2023-02-07T20:04:59.697Z,85.57
2023-02-07T20:07:05.034Z,85.26
2023-02-07T20:09:10.491Z,84.86
2023-02-07T20:11:18.308Z,85.13
2023-02-07T20:13:29.461Z,85.43
2023-02-07T20:15:34.777Z,85.50
2023-02-07T20:17:40.523Z,85.63
2023-02-07T20:19:45.586Z,84.93
2023-02-07T20:21:50.873Z,85.29
2023-02-07T20:23:58.080Z,85.14
2023-02-07T20:26:06.853Z,85.62
2023-02-07T20:28:12.124Z,85.40
2023-02-07T20:30:20.258Z,85.72
2023-02-07T20:32:25.290Z,85.80
2023-02-07T20:34:30.147Z,85.49
2023-02-07T20:36:40.941Z,85.87
2023-02-07T20:38:46.095Z,86.15
2023-02-07T20:40:52.546Z,85.92
2023-02-07T20:42:57.618Z,86.22
2023-02-07T20:45:02.756Z,86.29
2023-02-07T20:47:12.407Z,86.67
2023-02-07T20:49:21.000Z,86.12
2023-02-07T20:51:25.914Z,86.11
2023-02-07T20:53:30.725Z,85.99
2023-02-07T20:55:37.161Z,86.27
2023-02-07T20:57:42.108Z,86.48
2023-02-07T20:59:46.946Z,86.33
2023-02-07T21:01:52.208Z,86.90
2023-02-07T21:04:02.475Z,86.47
2023-02-07T21:06:08.207Z,86.79
2023-02-07T21:08:15.318Z,86.83
2023-02-07T21:10:20.556Z,86.43
2023-02-07T21:12:25.525Z,87.54
2023-02-07T21:14:32.690Z,87.86
2023-02-07T21:16:38.044Z,87.62
2023-02-07T21:18:47.763Z,86.96
2023-02-07T21:20:55.605Z,87.61
2023-02-07T21:23:00.455Z,87.82
2023-02-07T21:25:05.407Z,87.02
2023-02-07T21:27:10.443Z,87.83
2023-02-07T21:29:15.541Z,88.45
2023-02-07T21:31:22.871Z,88.28
2023-02-07T21:33:28.096Z,88.36
2023-02-07T21:35:33.241Z,88.53
2023-02-07T21:37:40.885Z,88.80
2023-02-07T21:39:45.919Z,88.28
2023-02-07T21:41:53.419Z,87.90
2023-02-07T21:43:58.925Z,88.66
2023-02-07T21:46:09.154Z,88.49
2023-02-07T21:48:13.920Z,88.94
2023-02-07T21:50:18.817Z,88.39
2023-02-07T21:52:23.917Z,88.66
2023-02-07T21:54:31.424Z,87.74
2023-02-07T21:56:39.999Z,88.17
2023-02-07T21:58:45.994Z,87.95
2023-02-07T22:00:53.933Z,89.03
2023-02-07T22:02:59.009Z,88.31
2023-02-07T22:05:03.940Z,88.83
2023-02-07T22:07:11.932Z,89.57
2023-02-07T22:09:20.688Z,89.55
2023-02-07T22:11:31.507Z,89.15
2023-02-07T22:13:37.804Z,88.97
2023-02-07T22:15:42.709Z,88.74
2023-02-07T22:17:59.009Z,89.09
2023-02-07T22:20:03.928Z,89.00
2023-02-07T22:22:11.859Z,88.99
2023-02-07T22:24:19.650Z,88.70
2023-02-07T22:26:27.666Z,89.41
2023-02-07T22:28:33.268Z,89.00
2023-02-07T22:30:42.711Z,89.48
2023-02-07T22:32:50.826Z,89.81
2023-02-07T22:34:56.846Z,89.27
2023-02-07T22:37:02.204Z,89.40
2023-02-07T22:39:09.337Z,89.98
2023-02-07T22:41:14.221Z,88.86
2023-02-07T22:43:22.646Z,88.55
2023-02-07T22:45:27.702Z,89.66
2023-02-07T22:47:32.687Z,89.42
2023-02-07T22:49:42.387Z,88.96
2023-02-07T22:51:50.651Z,89.21
2023-02-07T22:53:57.853Z,90.12
2023-02-07T22:56:03.880Z,89.03
2023-02-07T22:58:12.316Z,88.95
2023-02-07T23:00:22.448Z,89.95
2023-02-07T23:02:27.330Z,90.61
2023-02-07T23:04:32.412Z,90.25
2023-02-07T23:06:37.408Z,90.41
2023-02-07T23:08:42.325Z,89.57
2023-02-07T23:10:47.100Z,89.48
2023-02-07T23:12:52.273Z,90.32
2023-02-07T23:14:57.582Z,89.31
2023-02-07T23:17:07.394Z,90.19
2023-02-07T23:19:15.971Z,89.47
2023-02-07T23:21:22.490Z,90.04
2023-02-07T23:23:27.515Z,90.52
2023-02-07T23:25:32.820Z,89.83
2023-02-07T23:27:37.758Z,91.30
2023-02-07T23:29:42.913Z,89.89
2023-02-07T23:31:49.372Z,90.67
2023-02-07T23:34:00.092Z,89.74
2023-02-07T23:36:06.275Z,89.68
2023-02-07T23:38:11.149Z,89.91
2023-02-07T23:40:16.077Z,91.32
2023-02-07T23:42:20.872Z,90.22
2023-02-07T23:44:26.688Z,90.55
2023-02-07T23:46:33.105Z,90.32
2023-02-07T23:48:41.181Z,91.33
2023-02-07T23:50:53.934Z,91.28
2023-02-07T23:52:58.967Z,90.98
2023-02-07T23:55:03.918Z,91.01
2023-02-07T23:57:10.162Z,90.52
2023-02-07T23:59:15.520Z,91.60
